createdAt,value
2018-12-17T00:00:31.402Z,-0.50
2018-12-17T00:02:58.962Z,-0.50
2018-12-17T00:05:26.499Z,-0.50
2018-12-17T00:07:54.186Z,-0.50
2018-12-17T00:10:21.736Z,-0.50
2018-12-17T00:12:49.301Z,-0.50
2018-12-17T00:15:16.846Z,-0.50
2018-12-17T00:17:44.398Z,-0.50
2018-12-17T00:20:11.985Z,-0.50
2018-12-17T00:22:39.591Z,-0.50
2018-12-17T00:25:07.171Z,-0.50
2018-12-17T00:27:34.775Z,-0.40
2018-12-17T00:30:02.310Z,-0.40
2018-12-17T00:32:29.875Z,-0.40
2018-12-17T00:34:57.409Z,-0.40
2018-12-17T00:37:24.971Z,-0.40
2018-12-17T00:39:52.506Z,-0.40
2018-12-17T00:42:20.066Z,-0.40
2018-12-17T00:44:47.603Z,-0.40
2018-12-17T00:47:15.166Z,-0.40
2018-12-17T00:49:42.703Z,-0.40
2018-12-17T00:52:10.259Z,-0.40
2018-12-17T00:54:37.797Z,-0.40
2018-12-17T00:57:05.394Z,-0.40
2018-12-17T00:59:32.943Z,-0.30
2018-12-17T01:02:00.511Z,-0.30
2018-12-17T01:04:28.058Z,-0.30
2018-12-17T01:06:55.661Z,-0.30
2018-12-17T01:09:23.200Z,-0.30
2018-12-17T01:11:50.911Z,-0.30
2018-12-17T01:14:18.499Z,-0.30
2018-12-17T01:16:46.063Z,-0.30
2018-12-17T01:19:13.598Z,-0.30
2018-12-17T01:21:41.402Z,-0.30
2018-12-17T01:24:08.954Z,-0.30
2018-12-17T01:26:36.514Z,-0.20
2018-12-17T01:29:04.102Z,-0.30
2018-12-17T01:31:31.703Z,-0.20
2018-12-17T01:33:59.266Z,-0.30
2018-12-17T01:36:26.810Z,-0.20
2018-12-17T01:38:54.376Z,-0.20
2018-12-17T01:41:21.920Z,-0.20
2018-12-17T01:43:49.531Z,-0.20
2018-12-17T01:46:17.080Z,-0.20
2018-12-17T01:48:44.683Z,-0.20
2018-12-17T01:51:12.223Z,-0.20
2018-12-17T01:53:39.788Z,-0.20
2018-12-17T01:56:07.331Z,-0.20
2018-12-17T01:58:34.893Z,-0.20
2018-12-17T02:01:02.436Z,-0.20
2018-12-17T02:03:29.996Z,-0.20
2018-12-17T02:05:57.539Z,-0.20
2018-12-17T02:08:25.101Z,-0.20
2018-12-17T02:10:52.688Z,-0.20
2018-12-17T02:13:20.459Z,-0.20
2018-12-17T02:15:47.994Z,-0.20
2018-12-17T02:18:15.598Z,-0.20
2018-12-17T02:20:43.129Z,-0.20
2018-12-17T02:23:10.678Z,-0.20
2018-12-17T02:25:38.263Z,-0.20
2018-12-17T02:28:05.820Z,-0.10
2018-12-17T02:30:33.365Z,-0.20
2018-12-17T02:33:00.971Z,-0.20
2018-12-17T02:35:28.511Z,-0.20
2018-12-17T02:37:56.071Z,-0.20
2018-12-17T02:40:23.610Z,-0.10
2018-12-17T02:42:51.165Z,-0.10
2018-12-17T02:45:18.716Z,-0.10
2018-12-17T02:47:46.288Z,-0.10
2018-12-17T02:50:13.834Z,-0.10
2018-12-17T02:52:41.409Z,-0.10
2018-12-17T02:55:08.967Z,-0.10
2018-12-17T02:57:36.530Z,-0.10
2018-12-17T03:00:06.273Z,-0.10
2018-12-17T03:02:33.882Z,-0.10
2018-12-17T03:05:01.432Z,-0.10
2018-12-17T03:07:28.993Z,-0.10
2018-12-17T03:09:56.546Z,-0.10
2018-12-17T03:12:24.339Z,-0.10
2018-12-17T03:14:51.891Z,-0.10
2018-12-17T03:17:19.444Z,-0.10
2018-12-17T03:19:47.011Z,-0.10
2018-12-17T03:22:14.601Z,-0.10
2018-12-17T03:24:42.172Z,-0.10
2018-12-17T03:27:09.742Z,-0.10
2018-12-17T03:29:37.440Z,0.00
2018-12-17T03:32:04.991Z,0.00
2018-12-17T03:34:32.556Z,0.00
2018-12-17T03:37:00.095Z,0.00
2018-12-17T03:39:27.667Z,0.00
2018-12-17T03:41:55.212Z,0.00
2018-12-17T03:44:22.776Z,0.00
2018-12-17T03:46:50.328Z,0.00
2018-12-17T03:49:17.883Z,0.00
2018-12-17T03:51:45.432Z,0.00
2018-12-17T03:54:12.994Z,0.00
2018-12-17T03:56:40.546Z,0.00
2018-12-17T03:59:08.107Z,0.00
2018-12-17T04:01:35.659Z,0.00
2018-12-17T04:04:03.215Z,0.00
2018-12-17T04:06:30.776Z,0.00
2018-12-17T04:08:58.335Z,0.00
2018-12-17T04:11:25.885Z,0.10
2018-12-17T04:13:53.453Z,0.00
2018-12-17T04:16:21.001Z,0.00
2018-12-17T04:18:48.608Z,0.10
2018-12-17T04:21:16.161Z,0.10
2018-12-17T04:23:43.734Z,0.10
2018-12-17T04:26:11.278Z,0.10
2018-12-17T04:28:38.839Z,0.10
2018-12-17T04:31:06.383Z,0.10
2018-12-17T04:33:33.944Z,0.10
2018-12-17T04:36:01.501Z,0.10
2018-12-17T04:38:29.071Z,0.10
2018-12-17T04:40:56.668Z,0.10
2018-12-17T04:43:24.232Z,0.10
2018-12-17T04:45:51.771Z,0.10
2018-12-17T04:48:19.343Z,0.20
2018-12-17T04:50:46.896Z,0.20
2018-12-17T04:53:14.467Z,0.20
2018-12-17T04:55:42.027Z,0.20
2018-12-17T04:58:09.659Z,0.20
2018-12-17T05:00:37.218Z,0.30
2018-12-17T05:03:04.760Z,0.30
2018-12-17T05:05:32.327Z,0.30
2018-12-17T05:07:59.872Z,0.30
2018-12-17T05:10:27.435Z,0.30
2018-12-17T05:12:54.984Z,0.30
2018-12-17T05:15:22.546Z,0.30
2018-12-17T05:17:50.091Z,0.30
2018-12-17T05:20:17.695Z,0.30
2018-12-17T05:22:45.238Z,0.30
2018-12-17T05:25:12.846Z,0.30
2018-12-17T05:27:40.386Z,0.30
2018-12-17T05:30:08.046Z,0.30
2018-12-17T05:32:35.645Z,0.30
2018-12-17T05:35:03.292Z,0.30
2018-12-17T05:37:30.827Z,0.30
2018-12-17T05:39:58.387Z,0.30
2018-12-17T05:42:25.936Z,0.40
2018-12-17T05:44:53.495Z,0.30
2018-12-17T05:47:21.047Z,0.40
2018-12-17T05:49:48.615Z,0.40
2018-12-17T05:52:16.160Z,0.40
2018-12-17T05:57:17.635Z,0.40
2018-12-17T05:59:45.203Z,0.40
2018-12-17T06:02:12.811Z,0.40
2018-12-17T06:04:40.448Z,0.40
2018-12-17T06:07:08.033Z,0.40
2018-12-17T06:09:35.752Z,0.40
2018-12-17T06:12:03.381Z,0.40
2018-12-17T06:14:30.944Z,0.40
2018-12-17T06:16:58.496Z,0.40
2018-12-17T06:19:26.112Z,0.40
2018-12-17T06:21:53.651Z,0.40
2018-12-17T06:24:21.357Z,0.40
2018-12-17T06:26:48.900Z,0.40
2018-12-17T06:29:16.509Z,0.40
2018-12-17T06:31:44.108Z,0.40
2018-12-17T06:34:11.685Z,0.40
2018-12-17T06:36:39.232Z,0.30
2018-12-17T06:39:06.980Z,0.40
2018-12-17T06:41:34.533Z,0.30
2018-12-17T06:44:02.179Z,0.30
2018-12-17T06:46:29.728Z,0.30
2018-12-17T06:48:57.285Z,0.30
2018-12-17T06:51:25.189Z,0.30
2018-12-17T06:53:52.735Z,0.20
2018-12-17T06:56:20.331Z,0.20
2018-12-17T06:58:47.866Z,0.20
2018-12-17T07:01:15.472Z,0.20
2018-12-17T07:03:43.011Z,0.10
2018-12-17T07:06:10.575Z,0.10
2018-12-17T07:08:38.320Z,0.10
2018-12-17T07:11:06.558Z,0.00
2018-12-17T07:13:34.145Z,0.00
2018-12-17T07:16:01.751Z,0.00
2018-12-17T07:18:29.309Z,-0.10
2018-12-17T07:20:56.881Z,0.00
2018-12-17T07:23:24.419Z,0.00
2018-12-17T07:25:51.989Z,-0.10
2018-12-17T07:28:19.531Z,-0.10
2018-12-17T07:30:47.106Z,-0.10
2018-12-17T07:33:14.652Z,-0.10
2018-12-17T07:35:42.211Z,-0.10
2018-12-17T07:38:09.752Z,-0.10
2018-12-17T07:40:37.318Z,-0.10
2018-12-17T07:43:04.908Z,-0.10
2018-12-17T07:45:32.471Z,-0.10
2018-12-17T07:48:00.016Z,0.00
2018-12-17T07:50:27.579Z,-0.10
2018-12-17T07:52:55.128Z,-0.10
2018-12-17T07:55:22.699Z,-0.10
2018-12-17T07:57:50.239Z,0.00
2018-12-17T08:00:17.799Z,0.00
2018-12-17T08:02:45.335Z,0.00
2018-12-17T08:05:12.895Z,0.00
2018-12-17T08:07:40.448Z,0.00
2018-12-17T08:10:08.095Z,0.00
2018-12-17T08:12:35.681Z,0.00
2018-12-17T08:15:04.038Z,0.00
2018-12-17T08:17:31.587Z,0.00
2018-12-17T08:19:59.241Z,0.00
2018-12-17T08:22:27.033Z,0.00
2018-12-17T08:24:54.592Z,0.00
2018-12-17T08:27:22.131Z,0.00
2018-12-17T08:29:49.709Z,0.00
2018-12-17T08:32:17.255Z,0.00
2018-12-17T08:34:44.795Z,0.00
2018-12-17T08:37:12.359Z,0.00
2018-12-17T08:39:39.904Z,0.00
2018-12-17T08:42:07.472Z,0.00
2018-12-17T08:44:35.020Z,0.00
2018-12-17T08:47:02.637Z,0.00
2018-12-17T08:49:30.184Z,0.00
2018-12-17T08:51:57.752Z,0.00
2018-12-17T08:54:25.291Z,0.00
2018-12-17T08:56:52.850Z,0.00
2018-12-17T08:59:20.471Z,0.00
2018-12-17T09:01:48.135Z,0.10
2018-12-17T09:04:15.724Z,0.10
2018-12-17T09:06:43.296Z,0.20
2018-12-17T09:09:10.847Z,0.20
2018-12-17T09:11:38.418Z,0.20
2018-12-17T09:14:05.971Z,0.30
2018-12-17T09:16:33.579Z,0.30
2018-12-17T09:19:01.127Z,0.40
2018-12-17T09:21:28.831Z,0.40
2018-12-17T09:23:56.384Z,0.40
2018-12-17T09:26:23.975Z,0.40
2018-12-17T09:28:51.612Z,0.50
2018-12-17T09:31:19.170Z,0.50
2018-12-17T09:33:46.716Z,0.50
2018-12-17T09:36:14.284Z,0.50
2018-12-17T09:38:41.829Z,0.50
2018-12-17T09:41:09.504Z,0.50
2018-12-17T09:43:37.047Z,0.60
2018-12-17T09:46:04.612Z,0.60
2018-12-17T09:48:32.157Z,0.60
2018-12-17T09:50:59.728Z,0.70
2018-12-17T09:53:27.286Z,0.70
2018-12-17T09:55:54.851Z,0.80
2018-12-17T09:58:22.402Z,0.80
2018-12-17T10:00:50.010Z,0.90
2018-12-17T10:03:17.554Z,0.90
2018-12-17T10:05:45.126Z,0.90
2018-12-17T10:08:12.678Z,1.00
2018-12-17T10:10:40.232Z,1.00
2018-12-17T10:13:07.775Z,1.00
2018-12-17T10:15:35.359Z,1.00
2018-12-17T10:18:02.910Z,1.00
2018-12-17T10:20:30.451Z,1.00
2018-12-17T10:22:58.008Z,1.00
2018-12-17T10:25:25.555Z,1.00
2018-12-17T10:27:53.173Z,1.00
2018-12-17T10:30:20.812Z,1.00
2018-12-17T10:32:48.371Z,1.00
2018-12-17T10:35:15.960Z,1.00
2018-12-17T10:37:43.518Z,1.00
2018-12-17T10:40:11.109Z,1.00
2018-12-17T10:42:38.715Z,1.00
2018-12-17T10:45:07.657Z,1.00
2018-12-17T10:47:35.268Z,1.10
2018-12-17T10:50:03.218Z,1.10
2018-12-17T10:52:30.779Z,1.10
2018-12-17T10:54:58.328Z,1.10
2018-12-17T10:57:25.891Z,1.20
2018-12-17T10:59:53.487Z,1.20
2018-12-17T11:02:23.009Z,1.30
2018-12-17T11:04:52.500Z,1.40
2018-12-17T11:07:20.071Z,1.50
2018-12-17T11:09:47.629Z,1.50
2018-12-17T11:12:15.187Z,1.60
2018-12-17T11:14:42.741Z,1.70
2018-12-17T11:17:10.317Z,1.70
2018-12-17T11:19:37.868Z,1.80
2018-12-17T11:22:05.441Z,1.90
2018-12-17T11:24:33.023Z,2.00
2018-12-17T11:27:00.583Z,2.10
2018-12-17T11:29:28.139Z,2.10
2018-12-17T11:31:55.700Z,2.20
2018-12-17T11:34:23.251Z,2.30
2018-12-17T11:36:50.816Z,2.30
2018-12-17T11:39:18.365Z,2.40
2018-12-17T11:41:46.805Z,2.50
2018-12-17T11:44:14.403Z,2.50
2018-12-17T11:46:41.994Z,2.50
2018-12-17T11:49:09.650Z,2.60
2018-12-17T11:51:37.306Z,2.60
2018-12-17T11:54:04.898Z,2.60
2018-12-17T11:56:37.918Z,2.50
2018-12-17T11:59:05.463Z,2.60
2018-12-17T12:01:33.076Z,2.60
2018-12-17T12:04:00.630Z,2.50
2018-12-17T12:06:28.200Z,2.50
2018-12-17T12:08:55.752Z,2.50
2018-12-17T12:11:23.332Z,2.50
2018-12-17T12:13:50.908Z,2.50
2018-12-17T12:16:18.458Z,2.60
2018-12-17T12:18:46.015Z,2.60
2018-12-17T12:21:13.561Z,2.60
2018-12-17T12:23:41.128Z,2.60
2018-12-17T12:26:08.671Z,2.70
2018-12-17T12:28:36.227Z,2.70
2018-12-17T12:31:03.811Z,2.80
2018-12-17T12:33:31.371Z,2.80
2018-12-17T12:35:58.952Z,2.80
2018-12-17T12:38:26.520Z,2.90
2018-12-17T12:40:54.104Z,2.90
2018-12-17T12:43:21.758Z,3.00
2018-12-17T12:45:49.303Z,3.00
2018-12-17T12:48:16.994Z,3.00
2018-12-17T12:50:44.546Z,3.10
2018-12-17T12:53:12.103Z,3.20
2018-12-17T12:55:39.646Z,3.30
2018-12-17T12:58:07.203Z,3.30
2018-12-17T13:00:34.749Z,3.40
2018-12-17T13:03:02.320Z,3.40
2018-12-17T13:05:29.868Z,3.50
2018-12-17T13:07:57.439Z,3.50
2018-12-17T13:10:24.975Z,3.50
2018-12-17T13:12:52.536Z,3.50
2018-12-17T13:15:20.121Z,3.50
2018-12-17T13:17:47.684Z,3.50
2018-12-17T13:20:15.224Z,3.50
2018-12-17T13:22:42.831Z,3.50
2018-12-17T13:25:12.356Z,3.50
2018-12-17T13:27:39.920Z,3.40
2018-12-17T13:30:08.468Z,3.40
2018-12-17T13:32:36.034Z,3.40
2018-12-17T13:35:04.269Z,3.40
2018-12-17T13:37:31.832Z,3.40
2018-12-17T13:39:59.392Z,3.30
2018-12-17T13:42:26.959Z,3.30
2018-12-17T13:44:54.495Z,3.20
2018-12-17T13:47:22.057Z,3.20
2018-12-17T13:49:49.604Z,3.10
2018-12-17T13:52:22.992Z,3.10
2018-12-17T13:54:50.540Z,3.10
2018-12-17T13:57:18.108Z,3.00
2018-12-17T13:59:45.657Z,3.00
2018-12-17T14:02:13.238Z,3.00
2018-12-17T14:04:40.797Z,3.00
2018-12-17T14:07:08.341Z,3.00
2018-12-17T14:09:37.845Z,3.00
2018-12-17T14:12:05.426Z,3.00
2018-12-17T14:14:32.992Z,3.00
2018-12-17T14:17:06.189Z,3.00
2018-12-17T14:19:33.756Z,2.90
2018-12-17T14:22:03.239Z,2.90
2018-12-17T14:24:30.873Z,2.90
2018-12-17T14:26:58.473Z,2.90
2018-12-17T14:29:26.036Z,2.80
2018-12-17T14:31:53.628Z,2.80
2018-12-17T14:34:21.183Z,2.80
2018-12-17T14:36:48.763Z,2.70
2018-12-17T14:39:16.328Z,2.70
2018-12-17T14:41:43.863Z,2.70
2018-12-17T14:44:17.136Z,2.70
2018-12-17T14:47:02.344Z,2.60
2018-12-17T14:49:29.954Z,2.60
2018-12-17T14:51:57.659Z,2.60
2018-12-17T14:54:25.220Z,2.50
2018-12-17T14:56:52.764Z,2.50
2018-12-17T14:59:20.374Z,2.50
2018-12-17T15:01:47.924Z,2.40
2018-12-17T15:04:15.493Z,2.40
2018-12-17T15:06:43.037Z,2.30
2018-12-17T15:09:10.603Z,2.30
2018-12-17T15:11:38.149Z,2.30
2018-12-17T15:14:05.755Z,2.20
2018-12-17T15:16:33.336Z,2.20
2018-12-17T15:19:00.896Z,2.20
2018-12-17T15:21:28.436Z,2.10
2018-12-17T15:23:55.993Z,2.10
2018-12-17T15:26:23.585Z,2.00
2018-12-17T15:28:51.149Z,2.00
2018-12-17T15:31:18.733Z,2.00
2018-12-17T15:33:46.301Z,1.90
2018-12-17T15:36:13.844Z,1.90
2018-12-17T15:38:41.407Z,1.80
2018-12-17T15:41:08.947Z,1.80
2018-12-17T15:43:36.509Z,1.70
2018-12-17T15:46:04.057Z,1.70
2018-12-17T15:48:31.608Z,1.70
2018-12-17T15:50:59.148Z,1.70
2018-12-17T15:53:26.703Z,1.60
2018-12-17T15:55:54.288Z,1.60
2018-12-17T15:58:21.856Z,1.60
2018-12-17T16:00:49.404Z,1.50
2018-12-17T16:03:16.960Z,1.50
2018-12-17T16:05:44.492Z,1.50
2018-12-17T16:08:12.037Z,1.50
2018-12-17T16:10:39.601Z,1.50
2018-12-17T16:13:07.137Z,1.40
2018-12-17T16:15:34.700Z,1.40
2018-12-17T16:18:02.237Z,1.40
2018-12-17T16:20:29.787Z,1.40
2018-12-17T16:22:57.324Z,1.40
2018-12-17T16:25:24.879Z,1.40
2018-12-17T16:27:52.424Z,1.40
2018-12-17T16:30:19.992Z,1.40
2018-12-17T16:32:47.527Z,1.30
2018-12-17T16:35:15.108Z,1.30
2018-12-17T16:37:42.660Z,1.30
2018-12-17T16:40:10.269Z,1.30
2018-12-17T16:42:37.816Z,1.30
2018-12-17T16:45:06.971Z,1.30
2018-12-17T16:47:34.548Z,1.30
2018-12-17T16:50:02.250Z,1.40
2018-12-17T16:52:29.876Z,1.40
2018-12-17T16:54:57.450Z,1.40
2018-12-17T16:57:25.001Z,1.50
2018-12-17T16:59:52.565Z,1.50
2018-12-17T17:02:20.117Z,1.50
2018-12-17T17:04:47.676Z,1.50
2018-12-17T17:07:15.220Z,1.50
2018-12-17T17:09:42.781Z,1.50
2018-12-17T17:12:10.329Z,1.60
2018-12-17T17:14:37.885Z,1.60
2018-12-17T17:17:05.471Z,1.60
2018-12-17T17:19:33.044Z,1.60
2018-12-17T17:22:00.587Z,1.60
2018-12-17T17:24:28.148Z,1.70
2018-12-17T17:26:55.732Z,1.70
2018-12-17T17:29:23.296Z,1.70
2018-12-17T17:31:50.840Z,1.70
2018-12-17T17:34:18.448Z,1.70
2018-12-17T17:36:45.987Z,1.70
2018-12-17T17:39:13.546Z,1.70
2018-12-17T17:41:41.092Z,1.70
2018-12-17T17:44:08.655Z,1.70
2018-12-17T17:46:36.221Z,1.70
2018-12-17T17:49:04.026Z,1.80
2018-12-17T17:51:31.612Z,1.80
2018-12-17T17:53:59.204Z,1.80
2018-12-17T17:56:26.767Z,1.80
2018-12-17T17:58:54.352Z,1.80
2018-12-17T18:01:21.919Z,1.80
2018-12-17T18:03:49.455Z,1.70
2018-12-17T18:06:17.012Z,1.80
2018-12-17T18:08:44.546Z,1.80
2018-12-17T18:11:12.107Z,1.80
2018-12-17T18:13:39.649Z,1.80
2018-12-17T18:16:07.208Z,1.80
2018-12-17T18:18:34.754Z,1.80
2018-12-17T18:21:02.324Z,1.80
2018-12-17T18:23:29.859Z,1.80
2018-12-17T18:25:57.424Z,1.80
2018-12-17T18:28:24.959Z,1.80
2018-12-17T18:30:52.521Z,1.90
2018-12-17T18:33:20.178Z,1.90
2018-12-17T18:35:47.754Z,1.90
2018-12-17T18:38:15.291Z,1.90
2018-12-17T18:40:42.858Z,1.90
2018-12-17T18:43:10.396Z,1.90
2018-12-17T18:45:38.023Z,1.90
2018-12-17T18:48:05.708Z,1.90
2018-12-17T18:50:33.264Z,1.90
2018-12-17T18:53:00.806Z,1.90
2018-12-17T18:55:28.367Z,2.00
2018-12-17T18:57:56.032Z,2.00
2018-12-17T19:00:23.592Z,2.00
2018-12-17T19:02:51.131Z,2.00
2018-12-17T19:05:18.731Z,2.00
2018-12-17T19:07:46.311Z,2.00
2018-12-17T19:10:13.917Z,2.00
2018-12-17T19:12:41.517Z,2.00
2018-12-17T19:15:09.145Z,2.00
2018-12-17T19:17:36.745Z,2.00
2018-12-17T19:20:04.391Z,2.00
2018-12-17T19:22:31.927Z,2.00
2018-12-17T19:24:59.488Z,2.00
2018-12-17T19:27:27.038Z,2.00
2018-12-17T19:29:54.603Z,2.00
2018-12-17T19:32:22.149Z,2.00
2018-12-17T19:34:49.702Z,2.10
2018-12-17T19:37:17.259Z,2.10
2018-12-17T19:39:44.808Z,2.10
2018-12-17T19:42:12.407Z,2.10
2018-12-17T19:44:39.976Z,2.10
2018-12-17T19:47:07.552Z,2.10
2018-12-17T19:49:35.096Z,2.10
2018-12-17T19:52:02.690Z,2.10
2018-12-17T19:54:30.237Z,2.10
2018-12-17T19:56:57.960Z,2.10
2018-12-17T19:59:25.505Z,2.20
2018-12-17T20:01:53.064Z,2.10
2018-12-17T20:04:20.603Z,2.20
2018-12-17T20:06:48.173Z,2.20
2018-12-17T20:09:15.716Z,2.20
2018-12-17T20:11:43.289Z,2.20
2018-12-17T20:14:10.832Z,2.20
2018-12-17T20:16:38.400Z,2.20
2018-12-17T20:19:05.945Z,2.20
2018-12-17T20:21:33.514Z,2.20
2018-12-17T20:24:01.063Z,2.20
2018-12-17T20:26:28.626Z,2.30
2018-12-17T20:28:56.171Z,2.30
2018-12-17T20:31:23.731Z,2.30
2018-12-17T20:33:51.272Z,2.30
2018-12-17T20:36:18.885Z,2.30
2018-12-17T20:38:46.432Z,2.30
2018-12-17T20:41:13.987Z,2.30
2018-12-17T20:43:41.526Z,2.30
2018-12-17T20:46:09.083Z,2.30
2018-12-17T20:48:36.628Z,2.30
2018-12-17T20:51:04.196Z,2.30
2018-12-17T20:53:31.735Z,2.30
2018-12-17T20:55:59.288Z,2.30
2018-12-17T20:58:26.827Z,2.30
2018-12-17T21:00:54.382Z,2.30
2018-12-17T21:03:21.919Z,2.30
2018-12-17T21:05:49.471Z,2.30
2018-12-17T21:08:17.007Z,2.30
2018-12-17T21:10:44.567Z,2.30
2018-12-17T21:13:12.112Z,2.30
2018-12-17T21:15:39.681Z,2.40
2018-12-17T21:18:07.275Z,2.40
2018-12-17T21:20:34.817Z,2.40
2018-12-17T21:23:02.377Z,2.40
2018-12-17T21:25:29.921Z,2.40
2018-12-17T21:27:57.481Z,2.40
2018-12-17T21:30:25.025Z,2.40
2018-12-17T21:32:52.589Z,2.40
2018-12-17T21:35:20.132Z,2.40
2018-12-17T21:37:47.696Z,2.40
2018-12-17T21:40:15.238Z,2.40
2018-12-17T21:42:42.796Z,2.40
2018-12-17T21:45:10.379Z,2.40
2018-12-17T21:47:37.940Z,2.40
2018-12-17T21:50:06.476Z,2.40
2018-12-17T21:52:34.049Z,2.40
2018-12-17T21:55:01.598Z,2.40
2018-12-17T21:57:29.167Z,2.40
2018-12-17T21:59:56.713Z,2.50
2018-12-17T22:02:24.275Z,2.40
2018-12-17T22:04:51.820Z,2.40
2018-12-17T22:07:19.380Z,2.50
2018-12-17T22:09:46.930Z,2.40
2018-12-17T22:12:14.491Z,2.50
2018-12-17T22:14:42.080Z,2.50
2018-12-17T22:17:09.648Z,2.50
2018-12-17T22:19:37.189Z,2.50
2018-12-17T22:22:04.749Z,2.50
2018-12-17T22:24:32.370Z,2.50
2018-12-17T22:26:59.930Z,2.50
2018-12-17T22:29:27.477Z,2.50
2018-12-17T22:31:55.043Z,2.50
2018-12-17T22:34:22.585Z,2.50
2018-12-17T22:36:50.143Z,2.60
2018-12-17T22:39:17.696Z,2.60
2018-12-17T22:41:45.260Z,2.60
2018-12-17T22:44:12.860Z,2.60
2018-12-17T22:46:40.429Z,2.60
2018-12-17T22:49:07.968Z,2.60
2018-12-17T22:51:35.532Z,2.60
2018-12-17T22:54:03.116Z,2.60
2018-12-17T22:56:30.679Z,2.60
2018-12-17T22:58:58.263Z,2.60
2018-12-17T23:01:25.872Z,2.60
2018-12-17T23:03:53.412Z,2.60
2018-12-17T23:06:20.956Z,2.70
2018-12-17T23:09:00.639Z,2.70
2018-12-17T23:11:42.087Z,2.70
2018-12-17T23:14:21.615Z,2.70
2018-12-17T23:17:01.000Z,2.70
2018-12-17T23:19:28.136Z,2.70
2018-12-17T23:21:55.691Z,2.80
2018-12-17T23:24:23.283Z,2.80
2018-12-17T23:26:50.896Z,2.80
2018-12-17T23:29:18.444Z,2.70
2018-12-17T23:31:49.891Z,2.80
2018-12-17T23:34:17.432Z,2.80
2018-12-17T23:36:44.997Z,2.80
2018-12-17T23:39:12.728Z,2.80
2018-12-17T23:41:40.271Z,2.80
2018-12-17T23:44:07.888Z,2.80
2018-12-17T23:46:35.471Z,2.80
2018-12-17T23:49:03.075Z,2.80
2018-12-17T23:51:30.625Z,2.80
2018-12-17T23:53:58.192Z,2.80
2018-12-17T23:56:25.731Z,2.80
2018-12-17T23:58:53.303Z,2.80
